Lake Isabella, CA

2:26 PM PST on March 06, 2015 (GMT -0800)
RAWS DEMOCRAT CA US | Change Station
CLOSE
Current Station
Personal Weather Station
Location: Bodfish, CA
Elevation: 2363 ft
Nearby Weather Stations

Elev 2363 ft 35.53 °N, 118.63 °W | Updated 1 hour ago

Clear
Clear
69.0 °F
Feels Like 69.0 °F
N
4.0
Wind Variable Wind from WNW
Gusts 8.0 mph

Today
High -- | Low -- °F
--% Chance of Precip.
Yesterday
High -- | Low -- °F
Precip. -- in
6:17 AM 5:54 PM
Full, 99% visible
Pressure 30.22 in
Visibility 8.0 miles
Clouds Clear
Dew Point 39.0 °F
Humidity 33%
Rainfall in
Snow Depth Not available.
UV 5 out of 12
Pollen 8.80 out of 12
Air Quality Not available.
Flu Activity Not available.
METAR KTSP 062215Z AUTO 08015G21KT 8SM CLR 19/M09 A3022 RMK AO2

More Conditions Fewer Conditions

Pressure 30.22 in
Visibility 8.0 miles
Clouds Clear
Dew Point 39.0 °F
Humidity 33%
Rainfall in
Snow Depth Not available.
UV 5 out of 12
Pollen 8.80 out of 12
Air Quality Not available.
Flu Activity Not available.
METAR KTSP 062215Z AUTO 08015G21KT 8SM CLR 19/M09 A3022 RMK AO2

More Conditions Fewer Conditions

10-Day Weather Forecast

Almanac

Astronomy

Mar. 06, 2015 Rise Set
Actual Time
Civil Twilight
Nautical Twilight
Astronomical Twilight
Moon
Length of Visible Light
Length of Day
Tomorrow will be .
, % of the Moon is Illuminated

Today's Extremes

State Highs State Lows

Community

WunderPhotos

Upload Photos

1,803,420 photos uploaded!

WunderBlogs® & News

Nearby

Air Quality

  Air Quality AQ Index Pollutant
Not available.

Snow Depth

Station Depth Elevation

Earthquake Activity

City Distance Mag. Time & Date
Minimum magnitude displayed is 2.5.

Coastal Water Temperatures

Place Temperature

Nearby Weather Stations